Time;durP1;ratioP1;P1;durP2;ratioP2;P2;SDS_P1;SDS_P2;PMS_P1;PMS_P2;Temp;Humidity;BMP_temperature;BMP_pressure;BME280_temperature;BME280_humidity;BME280_pressure;Samples;Min_cycle;Max_cycle;Signal;HPM_P1;HPM_P2
2023/05/06 00:01:07;;;;;;;0.88;0.88;;;;;;;14.51;89.03;97379.16;5020006;28;20172;-67
2023/05/06 00:03:35;;;;;;;0.90;0.90;;;;;;;14.52;88.76;97375.44;5021297;28;20045;-67
2023/05/06 00:06:05;;;;;;;0.40;0.40;;;;;;;14.26;90.52;97381.06;5019192;28;20414;-68
2023/05/06 00:08:33;;;;;;;0.80;0.80;;;;;;;14.12;90.90;97385.72;5026624;28;20042;-68
2023/05/06 00:11:01;;;;;;;0.82;0.82;;;;;;;14.09;91.37;97380.00;5016562;28;20038;-68
2023/05/06 00:13:28;;;;;;;0.50;0.50;;;;;;;13.99;91.80;97382.38;5014054;28;20049;-68
2023/05/06 00:15:56;;;;;;;0.35;0.30;;;;;;;14.04;91.58;97380.66;5019099;28;20465;-68
2023/05/06 00:18:23;;;;;;;0.70;0.70;;;;;;;14.06;91.64;97373.22;5018377;28;20054;-68
2023/05/06 00:20:51;;;;;;;0.90;0.90;;;;;;;14.07;91.39;97385.59;5025751;28;20038;-68
2023/05/06 00:23:19;;;;;;;0.70;0.70;;;;;;;14.10;91.61;97381.66;5012895;28;20107;-67
2023/05/06 00:25:47;;;;;;;0.68;0.68;;;;;;;14.12;91.44;97377.69;5019359;28;20471;-67
2023/05/06 00:28:14;;;;;;;0.60;0.60;;;;;;;14.02;92.13;97377.38;5018801;28;20141;-67
2023/05/06 00:30:42;;;;;;;0.68;0.68;;;;;;;14.00;92.27;97381.34;5014756;28;20543;-67
2023/05/06 00:33:10;;;;;;;0.95;0.95;;;;;;;14.00;92.13;97378.66;5014273;28;20156;-67
2023/05/06 00:35:38;;;;;;;0.85;0.85;;;;;;;14.15;91.35;97381.78;5017167;28;20088;-68
2023/05/06 00:38:08;;;;;;;1.00;1.00;;;;;;;14.15;91.67;97377.25;5024610;28;20054;-66
2023/05/06 00:40:37;;;;;;;0.70;0.70;;;;;;;14.15;91.78;97366.50;5013795;28;20037;-67
2023/05/06 00:43:05;;;;;;;0.68;0.68;;;;;;;14.13;91.71;97368.59;5019747;28;20100;-67
2023/05/06 00:45:33;;;;;;;0.70;0.70;;;;;;;14.10;91.69;97366.38;5017386;28;20038;-67
2023/05/06 00:48:01;;;;;;;0.70;0.70;;;;;;;13.99;92.22;97363.59;5013607;28;20042;-67
2023/05/06 00:50:30;;;;;;;0.60;0.60;;;;;;;13.98;92.68;97361.94;5025053;28;20046;-68
2023/05/06 00:52:58;;;;;;;0.20;0.20;;;;;;;13.92;92.73;97351.03;5021994;28;20425;-68
2023/05/06 00:55:26;;;;;;;0.82;0.82;;;;;;;13.83;93.16;97355.06;5017115;28;20057;-68
2023/05/06 00:57:55;;;;;;;0.82;0.82;;;;;;;13.80;93.54;97357.38;5021120;28;20041;-68
2023/05/06 01:00:23;;;;;;;0.60;0.60;;;;;;;13.82;93.25;97352.59;5022750;28;20291;-67
2023/05/06 01:02:51;;;;;;;0.80;0.80;;;;;;;13.84;93.21;97354.03;5022362;28;20045;-67
2023/05/06 01:05:21;;;;;;;0.68;0.68;;;;;;;13.80;93.51;97352.03;5013794;28;20049;-68
2023/05/06 01:07:52;;;;;;;0.70;0.70;;;;;;;13.84;93.01;97353.19;5018738;28;20512;-68
2023/05/06 01:10:27;;;;;;;0.30;0.30;;;;;;;13.85;93.03;97344.94;5021625;28;20428;-68
2023/05/06 01:13:01;;;;;;;0.90;0.77;;;;;;;13.96;92.03;97354.13;5011749;28;20041;-69
2023/05/06 01:15:33;;;;;;;0.90;0.90;;;;;;;13.90;92.48;97347.78;5017709;28;20045;-69
2023/05/06 01:18:04;;;;;;;0.77;0.77;;;;;;;13.82;92.29;97349.91;5018586;28;20080;-68
2023/05/06 01:20:33;;;;;;;1.15;1.15;;;;;;;13.87;91.96;97350.09;5022101;28;20076;-68
2023/05/06 01:23:01;;;;;;;0.90;0.90;;;;;;;13.93;92.13;97349.19;5022557;28;20041;-68
2023/05/06 01:25:32;;;;;;;0.70;0.70;;;;;;;13.82;92.12;97349.91;5015050;28;20050;-68
2023/05/06 01:28:00;;;;;;;0.77;0.77;;;;;;;13.84;92.15;97340.59;5011433;28;20042;-68
2023/05/06 01:30:32;;;;;;;0.73;0.73;;;;;;;13.76;92.41;97338.22;5017989;28;20053;-68
2023/05/06 01:33:04;;;;;;;1.00;1.00;;;;;;;13.73;92.82;97335.16;5011886;28;20050;-68
2023/05/06 01:35:35;;;;;;;0.80;0.80;;;;;;;13.75;92.33;97341.13;5017001;28;20054;-68
2023/05/06 01:38:07;;;;;;;0.70;0.70;;;;;;;13.76;92.13;97343.59;5028130;28;20566;-68
2023/05/06 01:40:36;;;;;;;0.80;0.80;;;;;;;13.71;92.86;97343.41;5018078;28;20049;-69
2023/05/06 01:43:05;;;;;;;0.88;0.88;;;;;;;13.77;92.30;97342.53;5023719;28;20045;-68
2023/05/06 01:45:34;;;;;;;0.77;0.77;;;;;;;13.77;92.55;97344.41;5016984;28;20497;-68
2023/05/06 01:48:04;;;;;;;0.70;0.70;;;;;;;13.72;92.42;97352.28;5024307;28;20493;-67
2023/05/06 01:50:32;;;;;;;0.80;0.80;;;;;;;13.76;92.60;97361.53;5021953;28;20060;-68
2023/05/06 01:53:01;;;;;;;0.98;0.98;;;;;;;13.68;93.02;97359.16;5025437;28;20567;-68
2023/05/06 01:55:29;;;;;;;1.13;1.13;;;;;;;13.59;92.89;97356.75;5019181;28;20048;-68
2023/05/06 01:57:59;;;;;;;0.90;0.90;;;;;;;13.62;92.70;97362.69;5010822;28;20046;-68
2023/05/06 02:00:27;;;;;;;0.65;0.65;;;;;;;13.58;92.68;97368.50;5020118;28;20053;-68
2023/05/06 02:02:54;;;;;;;1.30;1.30;;;;;;;13.59;92.58;97363.97;5016884;28;20041;-68
2023/05/06 02:05:22;;;;;;;0.93;0.93;;;;;;;13.68;92.51;97368.00;5018234;28;20060;-68
2023/05/06 02:07:54;;;;;;;0.82;0.82;;;;;;;13.64;92.49;97369.47;5013242;28;20571;-68
2023/05/06 02:10:22;;;;;;;0.95;0.95;;;;;;;13.53;93.05;97371.00;5015722;28;20057;-68
2023/05/06 02:12:56;;;;;;;0.75;0.75;;;;;;;13.38;94.01;97373.22;5027419;28;20128;-69
2023/05/06 02:15:26;;;;;;;0.95;0.95;;;;;;;13.50;93.50;97368.75;5011295;28;20046;-69
2023/05/06 02:17:55;;;;;;;0.95;0.95;;;;;;;13.41;93.48;97370.06;5014807;28;20046;-69
2023/05/06 02:20:23;;;;;;;0.85;0.85;;;;;;;13.41;93.47;97367.38;5020157;28;20080;-68
2023/05/06 02:22:51;;;;;;;0.80;0.80;;;;;;;13.39;93.25;97356.06;5010103;28;20038;-68
2023/05/06 02:25:19;;;;;;;0.80;0.80;;;;;;;13.34;93.65;97352.41;5021078;28;20064;-68
2023/05/06 02:27:46;;;;;;;0.73;0.73;;;;;;;13.36;93.67;97353.84;5020067;28;20065;-68
2023/05/06 02:30:14;;;;;;;0.70;0.70;;;;;;;13.30;93.61;97357.38;5019076;28;20046;-69
2023/05/06 02:32:43;;;;;;;0.82;0.82;;;;;;;13.29;93.46;97350.38;5012076;28;20078;-69
2023/05/06 02:35:10;;;;;;;0.90;0.90;;;;;;;13.16;94.05;97347.81;5024514;28;20124;-68
2023/05/06 02:37:38;;;;;;;0.77;0.77;;;;;;;13.19;93.63;97344.66;5020999;28;20052;-68
2023/05/06 02:40:07;;;;;;;0.80;0.80;;;;;;;13.20;93.67;97349.00;5021782;28;20038;-67
2023/05/06 02:42:35;;;;;;;0.90;0.90;;;;;;;13.27;93.36;97347.09;5025130;28;20548;-68
2023/05/06 02:45:03;;;;;;;0.80;0.80;;;;;;;13.19;93.42;97341.97;5026137;28;20092;-69
2023/05/06 02:47:32;;;;;;;0.70;0.70;;;;;;;13.19;93.23;97341.97;5019935;28;20041;-69
2023/05/06 02:50:01;;;;;;;1.00;1.00;;;;;;;13.21;92.87;97342.59;5018714;28;20048;-68
2023/05/06 02:52:28;;;;;;;0.30;0.30;;;;;;;13.21;92.43;97339.91;5024987;28;20591;-68
2023/05/06 02:54:56;;;;;;;0.40;0.40;;;;;;;13.21;92.31;97343.41;5031016;28;20471;-68
2023/05/06 02:57:23;;;;;;;0.80;0.80;;;;;;;13.07;93.07;97339.19;5026632;28;20038;-68
2023/05/06 02:59:51;;;;;;;1.17;1.17;;;;;;;13.01;92.90;97342.69;5022623;28;20050;-68
2023/05/06 03:02:18;;;;;;;0.80;0.80;;;;;;;12.94;93.29;97333.06;5025011;28;20046;-68
2023/05/06 03:04:46;;;;;;;0.40;0.40;;;;;;;12.94;93.38;97341.94;5029329;28;20417;-68
2023/05/06 03:07:15;;;;;;;0.75;0.75;;;;;;;12.92;93.31;97340.50;5024508;28;20041;-69
2023/05/06 03:09:43;;;;;;;0.75;0.75;;;;;;;13.05;92.82;97343.09;5021949;28;20509;-69
2023/05/06 03:12:11;;;;;;;0.63;0.63;;;;;;;13.01;92.26;97334.66;5031744;28;20057;-68
2023/05/06 03:14:39;;;;;;;0.93;0.93;;;;;;;12.92;92.79;97338.63;5018800;28;20045;-68
2023/05/06 03:17:07;;;;;;;1.00;1.00;;;;;;;12.87;92.65;97338.47;5024476;28;20053;-68
2023/05/06 03:19:36;;;;;;;0.73;0.73;;;;;;;12.94;92.52;97343.78;5022436;28;20562;-68
2023/05/06 03:22:06;;;;;;;0.68;0.68;;;;;;;12.88;92.73;97345.47;5027273;28;20125;-68
2023/05/06 03:24:37;;;;;;;0.80;0.80;;;;;;;12.93;92.42;97340.28;5024301;28;20050;-68
2023/05/06 03:27:06;;;;;;;0.95;0.95;;;;;;;12.87;92.52;97341.94;5027687;28;20087;-68
2023/05/06 03:29:33;;;;;;;0.73;0.73;;;;;;;12.92;92.43;97337.81;5018831;28;20046;-68
2023/05/06 03:32:03;;;;;;;0.70;0.70;;;;;;;12.91;92.33;97336.19;5023769;28;20037;-71
2023/05/06 03:34:35;;;;;;;0.80;0.80;;;;;;;12.93;92.23;97334.09;5016094;28;20077;-70
2023/05/06 03:37:03;;;;;;;0.93;0.93;;;;;;;12.83;92.41;97343.44;5015316;28;20046;-70
2023/05/06 03:39:31;;;;;;;0.90;0.90;;;;;;;12.80;92.62;97340.34;5018440;28;20046;-71
2023/05/06 03:42:01;;;;;;;0.93;0.93;;;;;;;12.87;91.91;97339.28;5026751;28;20056;-71
2023/05/06 03:44:29;;;;;;;0.77;0.77;;;;;;;12.88;92.12;97340.09;5018339;28;20099;-70
2023/05/06 03:46:58;;;;;;;0.82;0.82;;;;;;;12.81;92.25;97333.97;5027743;28;20049;-73
2023/05/06 03:49:27;;;;;;;0.80;0.80;;;;;;;12.85;92.25;97338.69;5030213;28;20770;-72
2023/05/06 03:51:55;;;;;;;0.68;0.68;;;;;;;12.93;91.97;97342.16;5018799;28;20045;-73
2023/05/06 03:54:24;;;;;;;0.80;0.80;;;;;;;12.94;92.26;97341.09;5027434;28;20068;-73
2023/05/06 03:56:53;;;;;;;0.80;0.80;;;;;;;13.00;92.37;97342.91;5015094;28;20240;-72
2023/05/06 03:59:22;;;;;;;0.80;0.80;;;;;;;13.00;91.27;97345.59;5020328;28;20049;-73
2023/05/06 04:01:50;;;;;;;0.70;0.70;;;;;;;12.90;91.42;97342.56;5026968;28;20042;-72
2023/05/06 04:04:18;;;;;;;0.80;0.80;;;;;;;12.94;91.34;97346.47;5027686;28;20334;-72
2023/05/06 04:06:46;;;;;;;0.38;0.38;;;;;;;12.90;91.19;97348.75;5019484;28;20480;-72
2023/05/06 04:09:13;;;;;;;0.82;0.82;;;;;;;12.90;91.20;97347.91;5017972;28;20038;-72
2023/05/06 04:11:41;;;;;;;0.80;0.80;;;;;;;12.99;91.70;97349.31;5022944;28;20046;-73
2023/05/06 04:14:12;;;;;;;0.73;0.73;;;;;;;12.93;90.96;97352.88;5017266;28;20092;-72
2023/05/06 04:16:40;;;;;;;1.00;1.00;;;;;;;12.86;91.26;97358.28;5017274;28;20050;-73
2023/05/06 04:19:08;;;;;;;0.70;0.70;;;;;;;12.85;91.09;97359.31;5020693;28;20046;-73
2023/05/06 04:21:36;;;;;;;0.70;0.70;;;;;;;12.86;91.25;97359.09;5017167;28;20121;-72
2023/05/06 04:24:08;;;;;;;0.70;0.70;;;;;;;12.93;91.11;97363.56;5019194;28;20034;-73
2023/05/06 04:26:38;;;;;;;0.95;0.95;;;;;;;12.92;91.04;97372.66;5021681;28;20052;-73
2023/05/06 04:29:07;;;;;;;0.70;0.70;;;;;;;12.99;91.15;97373.41;5016406;28;20050;-73
2023/05/06 04:31:42;;;;;;;0.70;0.70;;;;;;;13.03;90.90;97372.78;5024945;28;20068;-72
2023/05/06 04:34:12;;;;;;;0.75;0.75;;;;;;;12.95;90.50;97375.72;5025349;28;20132;-72
2023/05/06 04:36:40;;;;;;;1.20;1.10;;;;;;;13.04;90.29;97371.75;5011116;28;20104;-73
2023/05/06 04:39:17;;;;;;;1.30;1.30;;;;;;;13.01;89.93;97372.16;5021615;28;20057;-72
2023/05/06 04:41:45;;;;;;;0.70;0.70;;;;;;;12.97;90.33;97376.34;5012975;28;20088;-72
2023/05/06 04:44:18;;;;;;;1.08;1.02;;;;;;;12.97;90.18;97379.03;5022666;28;20164;-72
2023/05/06 04:46:48;;;;;;;0.75;0.75;;;;;;;12.78;91.05;97390.63;5022256;28;20037;-73
2023/05/06 04:49:16;;;;;;;0.65;0.65;;;;;;;12.70;91.57;97391.72;5022928;28;20046;-72
2023/05/06 04:51:44;;;;;;;0.80;0.80;;;;;;;12.78;91.53;97396.81;5021272;28;20052;-74
2023/05/06 04:54:12;;;;;;;0.70;0.70;;;;;;;12.90;90.88;97399.66;5012737;28;20042;-74
2023/05/06 04:56:40;;;;;;;0.77;0.77;;;;;;;13.02;90.25;97411.34;5022873;28;20045;-73
2023/05/06 04:59:10;;;;;;;0.93;0.93;;;;;;;12.96;89.95;97401.47;5015870;28;20049;-73
2023/05/06 05:01:39;;;;;;;0.90;0.80;;;;;;;12.89;90.16;97408.72;5028279;28;20049;-72
2023/05/06 05:04:10;;;;;;;0.95;0.95;;;;;;;12.82;90.81;97410.59;5017157;28;20049;-76
2023/05/06 05:06:37;;;;;;;0.35;0.35;;;;;;;12.81;90.74;97414.31;5016257;28;20456;-72
2023/05/06 05:09:05;;;;;;;0.80;0.80;;;;;;;12.76;91.05;97423.00;5020567;28;20053;-71
2023/05/06 05:11:33;;;;;;;0.93;0.93;;;;;;;12.85;90.81;97416.38;5024870;28;20041;-71
2023/05/06 05:14:01;;;;;;;0.20;0.20;;;;;;;12.93;90.39;97420.66;5022011;28;20435;-73
2023/05/06 05:16:30;;;;;;;0.85;0.85;;;;;;;13.00;89.81;97408.03;5019956;28;20038;-72
2023/05/06 05:18:57;;;;;;;0.82;0.82;;;;;;;13.01;89.94;97419.56;5018575;28;20042;-73
2023/05/06 05:21:31;;;;;;;0.70;0.70;;;;;;;13.08;90.30;97409.66;5013995;28;20308;-72
2023/05/06 05:23:59;;;;;;;0.60;0.60;;;;;;;13.22;89.54;97416.59;5017561;28;20065;-71
2023/05/06 05:26:27;;;;;;;0.70;0.70;;;;;;;13.19;89.02;97412.50;5023829;28;20497;-72
2023/05/06 05:28:57;;;;;;;0.73;0.73;;;;;;;13.27;89.11;97416.78;5017148;28;20053;-71
2023/05/06 05:31:24;;;;;;;0.60;0.60;;;;;;;13.28;88.65;97422.97;5018484;28;20060;-72
2023/05/06 05:33:52;;;;;;;0.90;0.90;;;;;;;13.37;88.47;97422.50;5028014;28;20124;-74
2023/05/06 05:36:22;;;;;;;0.82;0.82;;;;;;;13.43;88.47;97416.25;5022676;28;20095;-75
2023/05/06 05:38:55;;;;;;;0.75;0.75;;;;;;;13.34;88.61;97430.16;5021264;28;20068;-73
2023/05/06 05:41:25;;;;;;;0.65;0.65;;;;;;;13.34;88.08;97433.66;5012389;28;20049;-72
2023/05/06 05:43:55;;;;;;;0.57;0.57;;;;;;;13.36;88.27;97433.44;5022016;28;20060;-69
2023/05/06 05:46:23;;;;;;;0.90;0.90;;;;;;;13.42;88.21;97432.56;5016111;28;20137;-69
2023/05/06 05:48:51;;;;;;;0.60;0.60;;;;;;;13.47;87.67;97430.88;5022932;28;20499;-69
2023/05/06 05:51:21;;;;;;;0.88;0.88;;;;;;;13.56;87.48;97432.25;5015415;28;20046;-69
2023/05/06 05:53:51;;;;;;;0.68;0.68;;;;;;;13.62;86.52;97427.88;5018445;28;20605;-69
2023/05/06 05:56:21;;;;;;;0.60;0.60;;;;;;;13.65;86.21;97434.66;5015247;28;20056;-69
2023/05/06 05:58:49;;;;;;;0.70;0.70;;;;;;;13.69;86.52;97442.06;5020198;28;20042;-69
2023/05/06 06:01:17;;;;;;;0.63;0.63;;;;;;;13.71;86.42;97437.28;5020224;28;20037;-69
2023/05/06 06:03:46;;;;;;;0.60;0.60;;;;;;;13.84;86.55;97441.75;5020536;28;20145;-69
2023/05/06 06:06:14;;;;;;;0.52;0.52;;;;;;;13.75;84.43;97437.69;5023376;28;20099;-69
2023/05/06 06:08:42;;;;;;;0.95;0.95;;;;;;;13.76;84.96;97445.53;5022668;28;20037;-69
2023/05/06 06:11:11;;;;;;;0.10;0.10;;;;;;;13.82;83.61;97449.19;5021690;28;20484;-69
2023/05/06 06:13:42;;;;;;;0.70;0.70;;;;;;;13.90;82.90;97449.75;5024025;28;20042;-69
2023/05/06 06:16:10;;;;;;;0.50;0.50;;;;;;;13.99;82.33;97452.97;5020672;28;20046;-69
2023/05/06 06:18:38;;;;;;;0.57;0.57;;;;;;;14.10;80.82;97454.94;5017565;28;20038;-69
2023/05/06 06:21:05;;;;;;;0.60;0.60;;;;;;;14.01;82.16;97448.22;5016487;28;20053;-69
2023/05/06 06:23:34;;;;;;;0.82;0.82;;;;;;;14.02;82.35;97460.56;5017758;28;20045;-69
2023/05/06 06:26:02;;;;;;;0.50;0.50;;;;;;;14.09;80.98;97461.34;5024953;28;20068;-69
2023/05/06 06:28:32;;;;;;;0.52;0.52;;;;;;;14.12;80.92;97460.88;5033319;28;20519;-69
2023/05/06 06:31:01;;;;;;;0.50;0.50;;;;;;;14.19;81.23;97471.59;5026519;28;20131;-69
2023/05/06 06:33:29;;;;;;;0.60;0.60;;;;;;;14.28;79.38;97471.09;5028110;28;20045;-69
2023/05/06 06:35:57;;;;;;;0.60;0.60;;;;;;;14.36;79.32;97467.28;5029512;28;20045;-69
2023/05/06 06:38:24;;;;;;;0.70;0.60;;;;;;;14.45;78.70;97470.53;5025880;28;20096;-69
2023/05/06 06:40:52;;;;;;;0.63;0.63;;;;;;;14.53;79.43;97472.94;5025239;28;20045;-69
2023/05/06 06:43:19;;;;;;;0.60;0.60;;;;;;;14.59;79.36;97478.25;5025421;28;20100;-69
2023/05/06 06:46:02;;;;;;;0.52;0.52;;;;;;;14.53;77.40;97479.13;5022579;28;20107;-69
2023/05/06 06:48:30;;;;;;;0.60;0.60;;;;;;;14.47;77.76;97480.00;5021969;28;20577;-69
2023/05/06 06:50:58;;;;;;;0.57;0.57;;;;;;;14.48;77.05;97483.53;5026913;28;20515;-69
2023/05/06 06:53:25;;;;;;;0.40;0.40;;;;;;;14.41;77.06;97486.28;5023127;28;20045;-69
2023/05/06 06:55:53;;;;;;;0.60;0.60;;;;;;;14.25;78.06;97497.53;5020651;28;20383;-69
2023/05/06 06:58:20;;;;;;;0.55;0.55;;;;;;;14.08;77.78;97491.91;5021241;28;20038;-70
2023/05/06 07:00:48;;;;;;;0.82;0.82;;;;;;;14.04;78.53;97484.50;5018979;28;20049;-70
2023/05/06 07:03:18;;;;;;;0.60;0.60;;;;;;;14.04;78.13;97495.25;5019817;28;20564;-69
2023/05/06 07:05:46;;;;;;;0.57;0.57;;;;;;;14.02;78.45;97491.94;5025644;28;20069;-70
2023/05/06 07:08:14;;;;;;;0.68;0.68;;;;;;;13.86;79.05;97502.19;5023233;28;20046;-69
2023/05/06 07:10:41;;;;;;;0.57;0.57;;;;;;;13.98;79.33;97502.31;5021712;28;20096;-69
2023/05/06 07:13:09;;;;;;;0.98;0.98;;;;;;;14.09;78.72;97493.56;5016832;28;20046;-69
2023/05/06 07:15:36;;;;;;;0.50;0.50;;;;;;;14.22;77.73;97498.00;5022501;28;20044;-69
2023/05/06 07:18:04;;;;;;;0.50;0.50;;;;;;;14.28;77.17;97514.03;5026298;28;20129;-69
2023/05/06 07:20:33;;;;;;;0.50;0.50;;;;;;;14.40;76.97;97506.13;5027474;28;20389;-69
2023/05/06 07:23:01;;;;;;;0.10;0.10;;;;;;;14.37;75.99;97508.38;5024203;28;20423;-69
2023/05/06 07:25:30;;;;;;;0.20;0.20;;;;;;;14.36;77.17;97509.41;5024099;28;20472;-68
2023/05/06 07:27:57;;;;;;;0.45;0.45;;;;;;;14.46;76.38;97510.59;5027448;28;20061;-68
2023/05/06 07:30:25;;;;;;;0.52;0.52;;;;;;;14.36;75.55;97510.25;5024805;28;20134;-68
2023/05/06 07:32:53;;;;;;;0.68;0.68;;;;;;;14.44;75.01;97515.34;5026492;28;20599;-69
2023/05/06 07:35:20;;;;;;;0.43;0.43;;;;;;;14.42;74.98;97524.69;5030180;28;20574;-69
2023/05/06 07:37:49;;;;;;;0.60;0.60;;;;;;;14.53;75.37;97523.97;5032309;28;20159;-69
2023/05/06 07:40:17;;;;;;;0.10;0.10;;;;;;;14.26;75.88;97518.81;5020589;28;20460;-70
2023/05/06 07:42:44;;;;;;;0.60;0.60;;;;;;;14.36;75.85;97528.22;5025888;28;20041;-70
2023/05/06 07:45:12;;;;;;;0.65;0.65;;;;;;;14.42;75.00;97530.06;5029156;28;20050;-70
2023/05/06 07:47:39;;;;;;;0.45;0.45;;;;;;;14.46;74.21;97531.25;5029137;28;20329;-69
2023/05/06 07:50:08;;;;;;;0.50;0.50;;;;;;;14.43;74.70;97540.56;5022614;28;20060;-70
2023/05/06 07:52:36;;;;;;;0.47;0.47;;;;;;;14.05;75.09;97535.28;5030377;28;20045;-70
2023/05/06 07:55:08;;;;;;;0.55;0.55;;;;;;;14.25;74.18;97540.50;5030109;28;20037;-70
2023/05/06 07:57:36;;;;;;;0.57;0.57;;;;;;;13.96;75.57;97537.41;5022908;28;20041;-70
2023/05/06 08:00:05;;;;;;;0.60;0.60;;;;;;;14.09;74.09;97539.19;5024832;28;20041;-69
2023/05/06 08:02:42;;;;;;;0.50;0.50;;;;;;;14.05;74.34;97542.50;5015197;28;20072;-70
2023/05/06 08:05:11;;;;;;;0.55;0.55;;;;;;;14.09;74.53;97547.25;5021206;28;20030;-70
2023/05/06 08:07:39;;;;;;;0.82;0.82;;;;;;;14.07;74.11;97543.13;5017676;28;20045;-69
2023/05/06 08:10:10;;;;;;;0.57;0.57;;;;;;;14.18;74.18;97545.94;5021869;28;20042;-69
2023/05/06 08:12:37;;;;;;;0.60;0.60;;;;;;;14.22;74.34;97557.84;5029269;28;20053;-68
2023/05/06 08:15:06;;;;;;;0.52;0.52;;;;;;;14.40;73.75;97545.56;5021827;28;20496;-68
2023/05/06 08:17:33;;;;;;;0.43;0.43;;;;;;;14.56;73.35;97542.31;5018221;28;20045;-70
2023/05/06 08:20:01;;;;;;;0.50;0.50;;;;;;;14.77;72.55;97555.34;5024968;28;20120;-68
2023/05/06 08:22:28;;;;;;;0.52;0.52;;;;;;;14.90;71.57;97549.00;5021686;28;20041;-69
2023/05/06 08:24:56;;;;;;;0.40;0.40;;;;;;;15.02;70.39;97548.06;5029984;28;20045;-68
2023/05/06 08:27:25;;;;;;;0.40;0.40;;;;;;;15.18;69.53;97546.63;5025639;28;20044;-69
2023/05/06 08:29:53;;;;;;;0.50;0.50;;;;;;;15.17;68.01;97560.28;5019408;28;20068;-69
2023/05/06 08:32:20;;;;;;;0.57;0.57;;;;;;;15.18;69.36;97551.16;5023223;28;20045;-69
2023/05/06 08:34:48;;;;;;;0.40;0.40;;;;;;;15.31;68.69;97553.72;5024548;28;20049;-69
2023/05/06 08:37:15;;;;;;;0.40;0.40;;;;;;;15.41;68.77;97559.38;5020830;28;20041;-68
2023/05/06 08:39:44;;;;;;;0.52;0.52;;;;;;;15.46;68.17;97564.91;5020485;28;20045;-68
2023/05/06 08:42:11;;;;;;;0.50;0.50;;;;;;;15.65;66.33;97558.47;5020545;28;20049;-68
2023/05/06 08:44:42;;;;;;;0.40;0.40;;;;;;;15.90;65.78;97563.72;5017718;28;20563;-68
2023/05/06 08:47:10;;;;;;;0.40;0.40;;;;;;;15.71;64.91;97562.13;5021430;28;20042;-68
2023/05/06 08:49:37;;;;;;;0.50;0.50;;;;;;;16.01;64.78;97562.09;5024030;28;20115;-68
2023/05/06 08:52:05;;;;;;;0.50;0.50;;;;;;;15.79;65.23;97551.03;5026864;28;20050;-68
2023/05/06 08:54:34;;;;;;;0.45;0.45;;;;;;;15.63;65.77;97567.81;5025808;28;20112;-68
2023/05/06 08:57:03;;;;;;;0.60;0.60;;;;;;;15.38;65.42;97552.56;5021137;28;20045;-68
2023/05/06 08:59:32;;;;;;;0.50;0.50;;;;;;;15.53;65.01;97556.75;5024262;28;20463;-68
2023/05/06 09:02:02;;;;;;;0.50;0.50;;;;;;;15.57;64.86;97556.13;5026670;28;20520;-68
2023/05/06 09:04:29;;;;;;;0.52;0.52;;;;;;;15.73;64.77;97560.03;5015496;28;20068;-68
2023/05/06 09:06:58;;;;;;;0.57;0.57;;;;;;;15.88;64.53;97557.75;5024631;28;20042;-68
2023/05/06 09:09:26;;;;;;;0.43;0.43;;;;;;;16.08;63.56;97552.06;5022127;28;20095;-68
2023/05/06 09:11:56;;;;;;;0.60;0.60;;;;;;;16.20;63.03;97555.59;5018655;28;20042;-68
2023/05/06 09:14:24;;;;;;;0.40;0.40;;;;;;;16.47;61.46;97556.81;5019802;28;20572;-69
2023/05/06 09:16:52;;;;;;;0.50;0.50;;;;;;;16.35;61.50;97560.53;5019979;28;20087;-68
2023/05/06 09:19:22;;;;;;;0.45;0.45;;;;;;;16.27;62.04;97560.88;5020493;28;20045;-68
2023/05/06 09:21:51;;;;;;;0.35;0.35;;;;;;;16.23;63.31;97557.00;5026124;28;20460;-68
2023/05/06 09:24:19;;;;;;;0.40;0.40;;;;;;;16.37;62.05;97551.19;5021548;28;20045;-69
2023/05/06 09:26:47;;;;;;;0.60;0.60;;;;;;;16.55;61.42;97547.56;5024597;28;20088;-69
2023/05/06 09:29:14;;;;;;;0.40;0.40;;;;;;;16.77;61.78;97539.75;5022611;28;20052;-68
2023/05/06 09:31:43;;;;;;;0.63;0.63;;;;;;;16.79;61.34;97546.56;5023349;28;20050;-68
2023/05/06 09:34:11;;;;;;;0.40;0.40;;;;;;;16.80;61.07;97544.69;5020974;28;20104;-68
2023/05/06 09:36:40;;;;;;;0.43;0.43;;;;;;;16.75;61.38;97547.25;5018746;28;20090;-68
2023/05/06 09:39:08;;;;;;;0.40;0.40;;;;;;;16.77;60.80;97545.13;5019631;28;20049;-68
2023/05/06 09:41:36;;;;;;;0.40;0.40;;;;;;;16.83;61.22;97547.69;5016152;28;20038;-68
2023/05/06 09:44:04;;;;;;;0.40;0.40;;;;;;;16.95;61.31;97550.38;5022305;28;20055;-68
2023/05/06 09:46:32;;;;;;;0.40;0.40;;;;;;;16.99;61.06;97545.34;5024915;28;20042;-68
2023/05/06 09:49:00;;;;;;;0.32;0.32;;;;;;;16.99;60.45;97556.16;5026170;28;20104;-68
2023/05/06 09:51:28;;;;;;;0.45;0.45;;;;;;;16.78;61.56;97549.47;5021043;28;20045;-68
2023/05/06 09:53:57;;;;;;;0.30;0.30;;;;;;;16.70;61.63;97541.75;5018989;28;20045;-69
2023/05/06 09:56:25;;;;;;;0.40;0.40;;;;;;;16.83;61.99;97546.88;5019704;28;20044;-69
2023/05/06 09:58:54;;;;;;;0.40;0.40;;;;;;;16.67;60.92;97550.28;5022702;28;20038;-69
2023/05/06 10:01:22;;;;;;;0.50;0.50;;;;;;;16.59;61.87;97553.31;5029092;28;20045;-69
2023/05/06 10:04:05;;;;;;;0.50;0.50;;;;;;;16.60;62.30;97552.25;5015484;28;20077;-69
2023/05/06 10:06:38;;;;;;;0.30;0.30;;;;;;;16.74;60.94;97551.00;5016218;28;20065;-69
2023/05/06 10:09:06;;;;;;;;;;;;;;;16.83;60.42;97545.00;5016386;28;20046;-69
2023/05/06 10:11:35;;;;;;;0.20;0.20;;;;;;;17.02;58.50;97542.19;5017899;28;20385;-69
2023/05/06 10:14:03;;;;;;;0.10;0.10;;;;;;;16.77;56.38;97543.25;5016678;28;20440;-69
2023/05/06 10:16:34;;;;;;;0.38;0.38;;;;;;;16.93;56.59;97539.00;5022589;28;20042;-68
2023/05/06 10:19:03;;;;;;;0.43;0.43;;;;;;;17.32;56.04;97542.84;5019524;28;20045;-68
2023/05/06 10:21:33;;;;;;;0.43;0.43;;;;;;;17.38;54.29;97547.25;5020408;28;20042;-69
2023/05/06 10:24:10;;;;;;;0.50;0.50;;;;;;;17.14;54.85;97548.38;5023165;28;20100;-69
2023/05/06 10:26:38;;;;;;;0.43;0.43;;;;;;;17.14;54.86;97546.50;5019651;28;20407;-69
2023/05/06 10:29:09;;;;;;;0.40;0.40;;;;;;;17.25;54.35;97540.25;5020175;28;20088;-69
2023/05/06 10:31:40;;;;;;;0.80;0.80;;;;;;;17.46;54.26;97529.88;5015368;28;20038;-70
2023/05/06 10:34:09;;;;;;;0.40;0.40;;;;;;;17.77;52.16;97529.41;5024038;28;20152;-70
2023/05/06 10:36:37;;;;;;;0.35;0.35;;;;;;;18.13;51.67;97524.66;5026565;28;20056;-68
2023/05/06 10:39:09;;;;;;;0.38;0.38;;;;;;;18.23;52.27;97519.44;5017131;28;20042;-68
2023/05/06 10:41:37;;;;;;;0.45;0.45;;;;;;;18.64;52.49;97519.03;5021724;28;20061;-68
2023/05/06 10:44:05;;;;;;;0.30;0.30;;;;;;;18.73;52.02;97510.50;5020603;28;20093;-68
2023/05/06 10:46:57;;;;;;;0.50;0.50;;;;;;;19.15;51.23;97513.50;5023060;28;20124;-70
2023/05/06 10:49:25;;;;;;;0.50;0.50;;;;;;;19.22;50.45;97514.94;5020853;28;20045;-68
2023/05/06 10:52:10;;;;;;;0.40;0.40;;;;;;;19.46;50.42;97503.84;5022738;28;20096;-68
2023/05/06 10:54:50;;;;;;;0.30;0.30;;;;;;;19.47;49.39;97490.06;5016988;28;20038;-68
2023/05/06 10:57:19;;;;;;;0.60;0.60;;;;;;;19.57;48.21;97505.66;5027866;28;20040;-68
2023/05/06 10:59:48;;;;;;;0.50;0.50;;;;;;;19.72;46.91;97503.13;5023274;28;20048;-68
2023/05/06 11:02:18;;;;;;;0.40;0.40;;;;;;;19.82;46.75;97505.91;5026967;28;20099;-68
2023/05/06 11:04:50;;;;;;;0.10;0.10;;;;;;;19.19;47.98;97501.94;5014757;28;20444;-68
2023/05/06 11:07:22;;;;;;;0.32;0.32;;;;;;;19.49;47.77;97501.50;5021669;28;20449;-68
2023/05/06 11:09:57;;;;;;;0.40;0.40;;;;;;;19.89;47.56;97501.09;5023705;28;20412;-68
2023/05/06 11:12:44;;;;;;;0.35;0.35;;;;;;;20.23;47.65;97495.44;5033764;28;20041;-68
2023/05/06 11:15:20;;;;;;;0.47;0.47;;;;;;;20.11;46.41;97501.84;5018939;28;20046;-68
2023/05/06 11:17:48;;;;;;;0.40;0.40;;;;;;;20.33;44.77;97498.25;5026634;28;20088;-67
2023/05/06 11:20:20;;;;;;;0.30;0.30;;;;;;;20.59;45.05;97502.78;5027255;28;20049;-67
2023/05/06 11:22:47;;;;;;;0.10;0.10;;;;;;;20.55;44.75;97499.00;5027569;28;20432;-68
2023/05/06 11:25:39;;;;;;;0.30;0.30;;;;;;;20.86;43.67;97498.09;5023512;28;20511;-67
2023/05/06 11:28:08;;;;;;;0.40;0.40;;;;;;;20.77;43.65;97496.94;5027069;28;20042;-67
2023/05/06 11:30:36;;;;;;;0.30;0.30;;;;;;;20.95;44.53;97501.13;5024202;28;20044;-67
2023/05/06 11:33:04;;;;;;;0.38;0.38;;;;;;;21.36;45.07;97509.50;5026818;28;20041;-68
2023/05/06 11:35:35;;;;;;;0.40;0.35;;;;;;;21.48;44.99;97512.81;5017912;28;20128;-69
2023/05/06 11:38:03;;;;;;;0.00;0.00;;;;;;;21.04;43.79;97506.88;5031807;28;20469;-67
2023/05/06 11:40:33;;;;;;;0.30;0.30;;;;;;;20.89;44.08;97513.03;5028268;28;20129;-68
2023/05/06 11:43:10;;;;;;;0.30;0.30;;;;;;;20.86;43.62;97514.38;5021137;28;20103;-68